createdAt,value
2018-06-29T00:00:00.240Z,37.60
2018-06-29T00:02:28.695Z,45.67
2018-06-29T00:04:56.913Z,43.30
2018-06-29T00:07:25.263Z,44.07
2018-06-29T00:09:53.650Z,44.47
2018-06-29T00:12:21.940Z,37.10
2018-06-29T00:14:50.235Z,40.47
2018-06-29T00:17:18.576Z,39.83
2018-06-29T00:19:46.932Z,34.10
2018-06-29T00:22:15.327Z,38.60
2018-06-29T00:24:43.645Z,43.40
2018-06-29T00:27:11.907Z,35.30
2018-06-29T00:29:40.298Z,35.10
2018-06-29T00:32:08.611Z,30.77
2018-06-29T00:34:37.558Z,29.50
2018-06-29T00:37:05.891Z,29.33
2018-06-29T00:39:34.232Z,29.73
2018-06-29T00:42:02.568Z,37.13
2018-06-29T00:44:31.496Z,30.90
2018-06-29T00:46:59.783Z,29.57
2018-06-29T00:49:28.061Z,33.50
2018-06-29T00:51:56.377Z,33.77
2018-06-29T00:54:24.654Z,36.70
2018-06-29T00:56:52.959Z,37.93
2018-06-29T00:59:21.232Z,36.13
2018-06-29T01:01:50.318Z,38.33
2018-06-29T01:04:18.628Z,31.97
2018-06-29T01:06:46.876Z,29.60
2018-06-29T01:09:16.012Z,31.70
2018-06-29T01:11:44.373Z,32.17
2018-06-29T01:14:12.760Z,32.50
2018-06-29T01:16:41.160Z,32.10
2018-06-29T01:19:09.464Z,32.77
2018-06-29T01:21:37.796Z,33.67
2018-06-29T01:24:06.149Z,32.23
2018-06-29T01:26:34.556Z,32.07
2018-06-29T01:29:02.861Z,35.27
2018-06-29T01:31:31.221Z,33.83
2018-06-29T01:33:59.515Z,33.13
2018-06-29T01:36:27.825Z,30.67
2018-06-29T01:38:56.104Z,30.70
2018-06-29T01:41:25.515Z,32.23
2018-06-29T01:43:53.804Z,32.20
2018-06-29T01:46:22.100Z,31.63
2018-06-29T01:48:50.852Z,32.23
2018-06-29T01:51:19.136Z,31.20
2018-06-29T01:53:47.398Z,30.20
2018-06-29T01:56:15.746Z,29.50
2018-06-29T01:58:44.039Z,31.30
2018-06-29T02:01:12.316Z,29.17
2018-06-29T02:03:40.748Z,29.07
2018-06-29T02:06:09.064Z,31.47
2018-06-29T02:08:37.401Z,30.73
2018-06-29T02:11:06.061Z,28.17
2018-06-29T02:13:34.362Z,27.87
2018-06-29T02:16:02.645Z,28.03
2018-06-29T02:18:31.107Z,29.20
2018-06-29T02:20:59.416Z,30.27
2018-06-29T02:23:27.787Z,29.40
2018-06-29T02:25:56.078Z,28.70
2018-06-29T02:28:24.464Z,29.97
2018-06-29T02:30:52.856Z,28.90
2018-06-29T02:33:21.023Z,30.40
2018-06-29T02:35:49.335Z,31.03
2018-06-29T02:38:17.661Z,30.63
2018-06-29T02:40:46.066Z,29.40
2018-06-29T02:43:14.474Z,29.33
2018-06-29T02:45:42.989Z,30.73
2018-06-29T02:48:11.356Z,30.43
2018-06-29T02:50:39.707Z,31.63
2018-06-29T02:53:08.028Z,33.37
2018-06-29T02:55:36.286Z,32.00
2018-06-29T02:58:04.603Z,29.37
2018-06-29T03:00:32.913Z,32.37
2018-06-29T03:03:01.221Z,29.87
2018-06-29T03:05:29.497Z,29.90
2018-06-29T03:07:57.808Z,29.30
2018-06-29T03:10:26.116Z,29.80
2018-06-29T03:12:54.534Z,28.33
2018-06-29T03:15:22.963Z,31.17
2018-06-29T03:17:51.296Z,28.60
2018-06-29T03:20:19.640Z,30.10
2018-06-29T03:22:47.944Z,29.60
2018-06-29T03:25:16.287Z,30.43
2018-06-29T03:27:44.525Z,28.93
2018-06-29T03:30:12.876Z,29.47
2018-06-29T03:32:41.957Z,29.33
2018-06-29T03:35:10.262Z,26.43
2018-06-29T03:37:38.560Z,29.60
2018-06-29T03:40:06.882Z,28.90
2018-06-29T03:42:35.213Z,28.37
2018-06-29T03:45:04.114Z,27.83
2018-06-29T03:47:32.505Z,28.27
2018-06-29T03:50:00.869Z,28.37
2018-06-29T03:52:29.831Z,28.03
2018-06-29T03:54:58.291Z,29.60
2018-06-29T03:57:26.608Z,30.80
2018-06-29T03:59:54.904Z,32.00
2018-06-29T04:02:23.218Z,32.77
2018-06-29T04:04:52.329Z,32.83
2018-06-29T04:07:21.378Z,32.90
2018-06-29T04:09:49.693Z,36.13
2018-06-29T04:12:18.045Z,38.20
2018-06-29T04:14:46.832Z,36.57
2018-06-29T04:17:15.190Z,38.43
2018-06-29T04:19:44.042Z,38.03
2018-06-29T04:22:12.317Z,37.70
2018-06-29T04:24:40.728Z,43.37
2018-06-29T04:27:08.988Z,36.13
2018-06-29T04:29:37.261Z,38.20
2018-06-29T04:32:05.600Z,37.33
2018-06-29T04:34:33.904Z,33.67
2018-06-29T04:37:02.895Z,31.23
2018-06-29T04:39:31.228Z,31.20
2018-06-29T04:41:59.537Z,31.37
2018-06-29T04:44:27.827Z,32.57
2018-06-29T04:46:56.729Z,33.17
2018-06-29T04:49:25.129Z,35.30
2018-06-29T04:51:53.437Z,33.27
2018-06-29T04:54:21.771Z,34.77
2018-06-29T04:56:50.009Z,37.30
2018-06-29T04:59:18.326Z,40.67
2018-06-29T05:01:46.639Z,44.60
2018-06-29T05:04:15.018Z,43.37
2018-06-29T05:06:43.431Z,38.97
2018-06-29T05:09:11.748Z,40.80
2018-06-29T05:11:40.045Z,46.53
2018-06-29T05:14:08.314Z,44.03
2018-06-29T05:16:36.881Z,29.07
2018-06-29T05:19:05.208Z,33.10
2018-06-29T05:21:33.517Z,22.57
2018-06-29T05:24:01.788Z,28.47
2018-06-29T05:26:30.048Z,52.40
2018-06-29T05:28:58.397Z,93.70
2018-06-29T05:31:26.695Z,42.23
2018-06-29T05:33:55.008Z,28.90
2018-06-29T05:36:23.300Z,25.97
2018-06-29T05:38:51.672Z,27.10
2018-06-29T05:41:20.016Z,25.80
2018-06-29T05:43:48.471Z,26.50
2018-06-29T05:46:16.847Z,24.20
2018-06-29T05:48:45.080Z,24.07
2018-06-29T05:51:13.385Z,26.60
2018-06-29T05:53:41.693Z,25.47
2018-06-29T05:56:10.016Z,24.33
2018-06-29T05:58:38.329Z,25.10
2018-06-29T06:01:09.504Z,23.77
2018-06-29T06:03:37.855Z,23.03
2018-06-29T06:06:06.561Z,23.60
2018-06-29T06:08:34.873Z,22.30
2018-06-29T06:11:03.246Z,23.60
2018-06-29T06:13:31.556Z,22.80
2018-06-29T06:16:00.719Z,23.30
2018-06-29T06:18:29.415Z,21.10
2018-06-29T06:20:57.765Z,20.93
2018-06-29T06:23:26.293Z,19.60
2018-06-29T06:25:54.564Z,17.93
2018-06-29T06:28:22.899Z,17.80
2018-06-29T06:30:51.215Z,16.80
2018-06-29T06:33:19.547Z,17.87
2018-06-29T06:35:47.798Z,18.07
2018-06-29T06:38:16.080Z,16.43
2018-06-29T06:40:44.435Z,16.60
2018-06-29T06:43:12.728Z,17.70
2018-06-29T06:45:40.996Z,25.23
2018-06-29T06:48:09.316Z,46.97
2018-06-29T06:50:37.607Z,70.13
2018-06-29T06:53:05.945Z,50.53
2018-06-29T06:55:34.307Z,103.07
2018-06-29T06:58:02.584Z,134.70
2018-06-29T07:00:30.921Z,112.10
2018-06-29T07:02:59.201Z,128.07
2018-06-29T07:05:27.499Z,121.37
2018-06-29T07:07:55.899Z,48.93
2018-06-29T07:10:24.179Z,27.73
2018-06-29T07:12:52.461Z,25.20
2018-06-29T07:15:20.833Z,18.80
2018-06-29T07:17:49.142Z,17.90
2018-06-29T07:20:17.959Z,17.97
2018-06-29T07:22:46.300Z,17.90
2018-06-29T07:25:14.657Z,17.63
2018-06-29T07:27:43.615Z,18.63
2018-06-29T07:30:12.020Z,19.30
2018-06-29T07:32:40.324Z,20.20
2018-06-29T07:35:08.685Z,18.80
2018-06-29T07:37:37.584Z,19.20
2018-06-29T07:40:05.883Z,18.60
2018-06-29T07:42:34.247Z,20.47
2018-06-29T07:45:02.536Z,21.17
2018-06-29T07:47:30.821Z,32.33
2018-06-29T07:49:59.060Z,27.83
2018-06-29T07:52:27.927Z,47.23
2018-06-29T07:54:56.214Z,71.07
2018-06-29T07:57:24.559Z,90.33
2018-06-29T07:59:53.703Z,62.77
2018-06-29T08:02:21.980Z,60.67
2018-06-29T08:04:50.232Z,73.97
2018-06-29T08:07:18.552Z,67.43
2018-06-29T08:09:46.996Z,53.07
2018-06-29T08:12:15.315Z,63.20
2018-06-29T08:14:43.645Z,42.60
2018-06-29T08:17:11.958Z,54.00
2018-06-29T08:19:40.499Z,43.27
2018-06-29T08:22:09.089Z,53.83
2018-06-29T08:24:41.758Z,48.33
2018-06-29T08:27:10.110Z,38.70
2018-06-29T08:29:38.433Z,19.80
2018-06-29T08:32:06.770Z,26.73
2018-06-29T08:34:35.112Z,22.97
2018-06-29T08:37:03.409Z,22.87
2018-06-29T08:39:31.741Z,39.83
2018-06-29T08:42:00.078Z,27.60
2018-06-29T08:44:28.465Z,26.67
2018-06-29T08:46:56.901Z,20.73
2018-06-29T08:49:25.209Z,21.33
2018-06-29T08:51:53.504Z,22.73
2018-06-29T08:54:21.850Z,48.20
2018-06-29T08:56:50.149Z,38.30
2018-06-29T08:59:18.413Z,34.10
2018-06-29T09:01:46.661Z,49.90
2018-06-29T09:04:14.983Z,56.40
2018-06-29T09:06:43.328Z,48.03
2018-06-29T09:09:11.622Z,57.13
2018-06-29T09:11:40.156Z,48.67
2018-06-29T09:14:08.498Z,38.23
2018-06-29T09:16:36.797Z,34.00
2018-06-29T09:19:05.259Z,33.90
2018-06-29T09:21:33.625Z,23.33
2018-06-29T09:24:02.115Z,21.60
2018-06-29T09:26:30.476Z,19.07
2018-06-29T09:28:59.130Z,17.77
2018-06-29T09:31:27.915Z,17.57
2018-06-29T09:33:57.451Z,16.90
2018-06-29T09:36:25.878Z,15.80
2018-06-29T09:38:54.468Z,15.80
2018-06-29T09:41:22.928Z,16.00
2018-06-29T09:43:51.300Z,15.93
2018-06-29T09:46:19.570Z,15.67
2018-06-29T09:48:47.925Z,16.20
2018-06-29T09:51:16.364Z,16.43
2018-06-29T09:53:44.690Z,15.70
2018-06-29T09:56:14.088Z,16.50
2018-06-29T09:58:43.496Z,15.90
2018-06-29T10:01:12.384Z,15.60
2018-06-29T10:03:41.075Z,15.40
2018-06-29T10:06:10.131Z,14.90
2018-06-29T10:08:39.667Z,14.23
2018-06-29T10:11:08.606Z,17.20
2018-06-29T10:13:38.079Z,15.80
2018-06-29T10:16:09.544Z,15.83
2018-06-29T10:18:40.613Z,16.77
2018-06-29T10:21:09.654Z,15.30
2018-06-29T10:23:38.628Z,15.30
2018-06-29T10:26:08.702Z,16.10
2018-06-29T10:28:38.557Z,15.50
2018-06-29T10:31:08.269Z,23.40
2018-06-29T10:33:37.458Z,17.07
2018-06-29T10:36:10.078Z,21.50
2018-06-29T10:38:38.738Z,19.40
2018-06-29T10:41:07.268Z,22.83
2018-06-29T10:43:35.856Z,19.67
2018-06-29T10:46:04.675Z,21.60
2018-06-29T10:48:34.257Z,22.80
2018-06-29T10:51:04.116Z,18.43
2018-06-29T10:53:32.880Z,18.30
2018-06-29T10:56:01.693Z,24.60
2018-06-29T10:58:30.027Z,24.50
2018-06-29T11:00:58.499Z,19.30
2018-06-29T11:03:26.793Z,20.53
2018-06-29T11:05:55.379Z,20.20
2018-06-29T11:08:24.134Z,17.97
2018-06-29T11:10:53.029Z,17.53
2018-06-29T11:13:21.721Z,23.70
2018-06-29T11:15:50.067Z,20.40
2018-06-29T11:18:18.413Z,20.10
2018-06-29T11:20:46.828Z,20.40
2018-06-29T11:23:15.103Z,18.17
2018-06-29T11:25:43.525Z,20.67
2018-06-29T11:28:12.278Z,16.57
2018-06-29T11:30:40.804Z,19.20
2018-06-29T11:33:09.284Z,18.63
2018-06-29T11:35:37.969Z,18.40
2018-06-29T11:38:06.412Z,17.43
2018-06-29T11:40:35.224Z,20.27
2018-06-29T11:43:03.571Z,18.97
2018-06-29T11:45:31.916Z,15.60
2018-06-29T11:48:00.515Z,18.10
2018-06-29T11:50:28.997Z,18.20
2018-06-29T11:52:57.398Z,21.73
2018-06-29T11:55:25.880Z,17.40
2018-06-29T11:57:54.546Z,15.70
2018-06-29T12:00:22.869Z,19.23
2018-06-29T12:02:51.713Z,20.27
2018-06-29T12:05:20.906Z,22.97
2018-06-29T12:07:49.914Z,17.67
2018-06-29T12:10:18.192Z,15.60
2018-06-29T12:12:47.287Z,19.07
2018-06-29T12:15:15.852Z,13.20
2018-06-29T12:17:44.236Z,15.53
2018-06-29T12:20:12.679Z,14.60
2018-06-29T12:22:41.357Z,15.07
2018-06-29T12:25:10.337Z,15.10
2018-06-29T12:27:38.848Z,15.67
2018-06-29T12:30:07.555Z,14.93
2018-06-29T12:32:35.839Z,16.37
2018-06-29T12:35:04.219Z,16.23
2018-06-29T12:37:33.491Z,13.70
2018-06-29T12:40:01.970Z,19.00
2018-06-29T12:42:30.386Z,25.13
2018-06-29T12:44:59.478Z,14.90
2018-06-29T12:47:27.851Z,13.07
2018-06-29T12:49:56.135Z,11.60
2018-06-29T12:52:24.703Z,13.50
2018-06-29T12:54:53.144Z,16.57
2018-06-29T12:57:21.488Z,12.40
2018-06-29T12:59:49.784Z,14.50
2018-06-29T13:02:18.160Z,13.57
2018-06-29T13:04:48.211Z,12.97
2018-06-29T13:07:17.399Z,76.37
2018-06-29T13:09:46.653Z,21.80
2018-06-29T13:12:15.076Z,12.50
2018-06-29T13:14:43.793Z,13.00
2018-06-29T13:17:12.186Z,13.00
2018-06-29T13:19:40.474Z,12.20
2018-06-29T13:22:08.926Z,15.63
2018-06-29T13:24:37.282Z,11.97
2018-06-29T13:27:05.633Z,12.60
2018-06-29T13:29:33.974Z,11.47
2018-06-29T13:32:02.344Z,14.30
2018-06-29T13:34:30.998Z,14.30
2018-06-29T13:36:59.375Z,12.70
2018-06-29T13:39:27.747Z,16.10
2018-06-29T13:41:56.044Z,15.03
2018-06-29T13:44:24.493Z,17.90
2018-06-29T13:46:53.525Z,12.60
2018-06-29T13:49:21.980Z,14.20
2018-06-29T13:51:50.904Z,29.63
2018-06-29T13:54:19.219Z,14.50
2018-06-29T13:56:48.195Z,14.43
2018-06-29T13:59:16.521Z,14.70
2018-06-29T14:01:44.860Z,14.20
2018-06-29T14:04:13.240Z,13.50
2018-06-29T14:06:41.636Z,15.80
2018-06-29T14:09:10.017Z,17.23
2018-06-29T14:11:38.532Z,17.47
2018-06-29T14:14:06.924Z,16.03
2018-06-29T14:16:35.242Z,17.27
2018-06-29T14:19:03.531Z,14.67
2018-06-29T14:21:31.995Z,12.67
2018-06-29T14:24:00.380Z,13.67
2018-06-29T14:26:28.975Z,11.47
2018-06-29T14:28:57.416Z,13.03
2018-06-29T14:31:25.714Z,13.13
2018-06-29T14:33:54.130Z,11.80
2018-06-29T14:36:22.433Z,13.03
2018-06-29T14:38:50.818Z,14.03
2018-06-29T14:41:19.475Z,15.33
2018-06-29T14:43:47.848Z,19.77
2018-06-29T14:46:16.203Z,21.13
2018-06-29T14:48:44.467Z,24.57
2018-06-29T14:51:13.010Z,21.40
2018-06-29T14:53:41.629Z,21.30
2018-06-29T14:56:09.985Z,19.83
2018-06-29T14:58:38.344Z,21.50
2018-06-29T15:01:06.876Z,20.60
2018-06-29T15:03:35.176Z,19.43
2018-06-29T15:06:03.780Z,18.90
2018-06-29T15:08:32.179Z,18.60
2018-06-29T15:11:00.493Z,19.57
2018-06-29T15:13:28.839Z,19.40
2018-06-29T15:15:57.215Z,19.87
2018-06-29T15:18:25.644Z,16.90
2018-06-29T15:20:54.004Z,17.83
2018-06-29T15:23:22.283Z,14.67
2018-06-29T15:25:50.687Z,16.30
2018-06-29T15:28:19.121Z,19.33
2018-06-29T15:30:47.443Z,17.63
2018-06-29T15:33:16.529Z,19.13
2018-06-29T15:35:44.808Z,16.23
2018-06-29T15:38:13.188Z,15.73
2018-06-29T15:40:41.647Z,16.50
2018-06-29T15:43:11.460Z,16.80
2018-06-29T15:45:39.758Z,14.67
2018-06-29T15:48:08.506Z,14.70
2018-06-29T15:50:37.564Z,14.70
2018-06-29T15:53:06.167Z,13.23
2018-06-29T15:55:34.499Z,13.30
2018-06-29T15:58:03.132Z,13.47
2018-06-29T16:00:31.488Z,15.50
2018-06-29T16:03:01.281Z,11.07
2018-06-29T16:05:29.612Z,11.90
2018-06-29T16:07:57.948Z,11.17
2018-06-29T16:10:26.325Z,11.17
2018-06-29T16:12:55.116Z,11.80
2018-06-29T16:15:23.491Z,13.60
2018-06-29T16:17:51.853Z,11.87
2018-06-29T16:20:20.149Z,12.23
2018-06-29T16:22:48.646Z,11.37
2018-06-29T16:25:17.006Z,11.40
2018-06-29T16:27:45.378Z,10.87
2018-06-29T16:30:13.834Z,11.80
2018-06-29T16:32:42.301Z,11.53
2018-06-29T16:35:10.835Z,11.63
2018-06-29T16:37:39.345Z,11.60
2018-06-29T16:40:07.919Z,12.00
2018-06-29T16:42:36.235Z,12.20
2018-06-29T16:45:04.627Z,11.40
2018-06-29T16:47:33.156Z,12.13
2018-06-29T16:50:01.759Z,12.90
2018-06-29T16:52:30.141Z,13.13
2018-06-29T16:54:58.443Z,18.27
2018-06-29T16:57:26.963Z,17.00
2018-06-29T16:59:55.324Z,17.00
2018-06-29T17:02:23.690Z,17.90
2018-06-29T17:04:52.401Z,15.70
2018-06-29T17:07:20.733Z,15.97
2018-06-29T17:09:49.877Z,16.33
2018-06-29T17:12:19.463Z,13.80
2018-06-29T17:14:47.770Z,15.33
2018-06-29T17:17:16.651Z,15.33
2018-06-29T17:19:45.972Z,16.23
2018-06-29T17:22:14.290Z,17.20
2018-06-29T17:24:42.566Z,17.90
2018-06-29T17:27:10.932Z,18.80
2018-06-29T17:29:39.212Z,17.77
2018-06-29T17:32:07.743Z,18.30
2018-06-29T17:34:36.083Z,16.97
2018-06-29T17:37:04.450Z,18.37
2018-06-29T17:39:32.968Z,18.10
2018-06-29T17:42:01.377Z,20.17
2018-06-29T17:44:29.652Z,19.00
2018-06-29T17:46:58.195Z,18.30
2018-06-29T17:49:26.564Z,18.47
2018-06-29T17:51:54.884Z,17.60
2018-06-29T17:54:23.182Z,17.53
2018-06-29T17:56:51.498Z,19.37
2018-06-29T17:59:19.763Z,17.13
2018-06-29T18:01:48.171Z,16.50
2018-06-29T18:04:16.468Z,16.20
2018-06-29T18:06:44.760Z,16.20
2018-06-29T18:09:13.105Z,15.97
2018-06-29T18:11:41.477Z,15.50
2018-06-29T18:14:09.802Z,15.20
2018-06-29T18:16:38.174Z,15.00
2018-06-29T18:19:06.555Z,17.70
2018-06-29T18:21:34.848Z,29.57
2018-06-29T18:24:03.276Z,44.07
2018-06-29T18:26:32.476Z,65.10
2018-06-29T18:29:00.774Z,73.57
2018-06-29T18:31:29.148Z,70.57
2018-06-29T18:33:57.496Z,50.50
2018-06-29T18:36:25.774Z,40.93
2018-06-29T18:38:54.051Z,27.33
2018-06-29T18:41:22.435Z,29.47
2018-06-29T18:43:50.738Z,22.73
2018-06-29T18:46:19.030Z,18.77
2018-06-29T18:48:47.356Z,17.90
2018-06-29T18:51:16.110Z,18.60
2018-06-29T18:53:44.385Z,18.27
2018-06-29T18:56:12.704Z,18.70
2018-06-29T18:58:41.034Z,17.80
2018-06-29T19:01:09.352Z,21.87
2018-06-29T19:03:37.824Z,22.33
2018-06-29T19:06:06.207Z,22.87
2018-06-29T19:08:34.517Z,24.07
2018-06-29T19:11:02.811Z,24.07
2018-06-29T19:13:31.054Z,28.70
2018-06-29T19:15:59.404Z,30.00
2018-06-29T19:18:27.792Z,32.40
2018-06-29T19:20:56.059Z,33.57
2018-06-29T19:23:24.411Z,34.00
2018-06-29T19:25:52.692Z,35.67
2018-06-29T19:28:21.109Z,36.40
2018-06-29T19:30:49.472Z,38.50
2018-06-29T19:33:17.812Z,35.40
2018-06-29T19:35:46.163Z,38.10
2018-06-29T19:38:14.660Z,27.63
2018-06-29T19:40:42.967Z,27.30
2018-06-29T19:43:11.247Z,25.80
2018-06-29T19:45:39.801Z,31.07
2018-06-29T19:48:08.037Z,35.43
2018-06-29T19:50:36.369Z,28.07
2018-06-29T19:53:04.670Z,26.50
2018-06-29T19:55:32.988Z,32.83
2018-06-29T19:58:01.272Z,32.77
2018-06-29T20:00:29.569Z,41.53
2018-06-29T20:02:57.822Z,26.37
2018-06-29T20:05:26.154Z,25.20
2018-06-29T20:07:54.423Z,24.20
2018-06-29T20:10:22.740Z,29.90
2018-06-29T20:12:51.089Z,22.57
2018-06-29T20:15:19.479Z,24.50
2018-06-29T20:17:47.821Z,22.90
2018-06-29T20:20:16.115Z,22.93
2018-06-29T20:22:44.385Z,22.70
2018-06-29T20:25:12.692Z,21.47
2018-06-29T20:27:41.093Z,20.47
2018-06-29T20:30:09.690Z,21.30
2018-06-29T20:32:38.189Z,20.93
2018-06-29T20:35:06.601Z,21.23
2018-06-29T20:37:34.844Z,23.00
2018-06-29T20:40:03.276Z,26.00
2018-06-29T20:42:31.574Z,24.30
2018-06-29T20:44:59.887Z,31.13
2018-06-29T20:47:28.222Z,31.77
2018-06-29T20:49:56.574Z,36.90
2018-06-29T20:52:25.655Z,40.70
2018-06-29T20:54:53.993Z,47.13
2018-06-29T20:57:22.323Z,51.50
2018-06-29T20:59:50.624Z,60.03
2018-06-29T21:02:18.909Z,67.47
2018-06-29T21:04:47.257Z,64.87
2018-06-29T21:07:15.535Z,55.10
2018-06-29T21:09:43.868Z,44.63
2018-06-29T21:12:12.145Z,31.77
2018-06-29T21:14:41.136Z,26.93
2018-06-29T21:17:09.465Z,22.10
2018-06-29T21:19:37.803Z,21.57
2018-06-29T21:22:06.079Z,23.10
2018-06-29T21:24:34.460Z,21.40
2018-06-29T21:27:02.747Z,20.63
2018-06-29T21:29:31.050Z,20.77
2018-06-29T21:31:59.347Z,26.70
2018-06-29T21:34:27.591Z,27.50
2018-06-29T21:36:55.903Z,32.60
2018-06-29T21:39:24.161Z,32.10
2018-06-29T21:41:52.491Z,54.07
2018-06-29T21:44:20.772Z,52.63
2018-06-29T21:46:49.112Z,54.10
2018-06-29T21:49:17.375Z,52.10
2018-06-29T21:51:45.673Z,44.37
2018-06-29T21:54:14.779Z,26.47
2018-06-29T21:56:43.018Z,24.47
2018-06-29T21:59:11.260Z,25.33
2018-06-29T22:01:39.551Z,33.03
2018-06-29T22:04:07.815Z,29.03
2018-06-29T22:06:36.085Z,24.77
2018-06-29T22:09:05.906Z,26.27
2018-06-29T22:11:34.275Z,23.70
2018-06-29T22:14:02.547Z,25.97
2018-06-29T22:16:30.841Z,25.93
2018-06-29T22:18:59.109Z,29.90
2018-06-29T22:21:27.404Z,42.67
2018-06-29T22:23:55.939Z,49.23
2018-06-29T22:26:24.223Z,51.03
2018-06-29T22:28:52.478Z,48.10
2018-06-29T22:31:20.817Z,39.20
2018-06-29T22:33:49.150Z,34.07
2018-06-29T22:36:17.447Z,32.50
2018-06-29T22:38:45.879Z,30.23
2018-06-29T22:41:14.147Z,26.27
2018-06-29T22:43:42.458Z,26.37
2018-06-29T22:46:10.743Z,26.57
2018-06-29T22:48:39.077Z,25.87
2018-06-29T22:51:08.108Z,28.30
2018-06-29T22:53:36.340Z,26.63
2018-06-29T22:56:04.701Z,27.97
2018-06-29T22:58:33.096Z,27.13
2018-06-29T23:01:01.941Z,28.60
2018-06-29T23:03:35.478Z,29.60
2018-06-29T23:06:03.785Z,31.30
2018-06-29T23:08:32.056Z,36.23
2018-06-29T23:11:00.390Z,43.03
2018-06-29T23:13:28.711Z,54.40
2018-06-29T23:15:56.955Z,59.57
2018-06-29T23:18:25.261Z,57.93
2018-06-29T23:20:53.605Z,61.77
2018-06-29T23:23:21.995Z,131.13
2018-06-29T23:25:50.351Z,152.33
2018-06-29T23:28:18.666Z,158.87
2018-06-29T23:30:46.960Z,189.27
2018-06-29T23:33:15.301Z,186.47
2018-06-29T23:35:43.621Z,186.80
2018-06-29T23:38:11.928Z,191.33
2018-06-29T23:40:40.188Z,184.73
2018-06-29T23:43:08.538Z,169.40
2018-06-29T23:45:36.898Z,144.83
2018-06-29T23:48:05.251Z,133.33
2018-06-29T23:50:33.627Z,111.03
2018-06-29T23:53:01.972Z,83.50
2018-06-29T23:55:30.295Z,67.97
2018-06-29T23:57:58.705Z,48.70
